createdAt,value
2023-03-16T00:21:38.845Z,13.2
2023-03-16T00:27:59.985Z,13.9
2023-03-16T00:48:10.600Z,12.1
2023-03-16T00:53:14.120Z,13.7
2023-03-16T01:05:35.661Z,16.9
2023-03-16T01:10:39.436Z,11.6
2023-03-16T01:15:41.790Z,10.6
2023-03-16T01:20:43.830Z,10.9
2023-03-16T01:25:45.858Z,10.2
2023-03-16T01:30:47.980Z,9.4
2023-03-16T01:35:50.326Z,9.9
2023-03-16T01:40:52.773Z,9.7
2023-03-16T01:45:55.532Z,10.3
2023-03-16T01:50:56.484Z,10.1
2023-03-16T01:55:58.716Z,9.4
2023-03-16T02:01:00.823Z,10
2023-03-16T02:06:03.085Z,8.9
2023-03-16T02:11:05.274Z,11
2023-03-16T02:16:07.468Z,9.6
2023-03-16T02:21:10.061Z,10.6
2023-03-16T02:26:12.286Z,9.2
2023-03-16T02:31:15.031Z,10
2023-03-16T02:36:17.818Z,10.7
2023-03-16T02:41:20.235Z,10
2023-03-16T02:46:23.056Z,11.8
2023-03-16T02:51:26.361Z,10.1
2023-03-16T02:56:35.081Z,9.3
2023-03-16T03:01:46.472Z,11.6
2023-03-16T03:06:46.290Z,10.1
2023-03-16T03:11:48.681Z,9.8
2023-03-16T03:16:50.973Z,10.6
2023-03-16T03:21:53.255Z,9.6
2023-03-16T03:26:55.529Z,8.6
2023-03-16T03:31:58.341Z,9.4
2023-03-16T03:37:01.212Z,10.2
2023-03-16T03:42:06.332Z,10.6
2023-03-16T03:47:08.816Z,10.5
2023-03-16T03:52:11.742Z,10.1
2023-03-16T03:57:14.429Z,9.6
2023-03-16T04:02:23.965Z,8.7
2023-03-16T04:07:35.164Z,12.1
2023-03-16T04:12:27.679Z,10.2
2023-03-16T04:17:30.070Z,12
2023-03-16T04:22:32.203Z,9.1
2023-03-16T04:27:34.324Z,10.8
2023-03-16T04:32:37.513Z,9.3
2023-03-16T04:37:40.203Z,9.6
2023-03-16T04:42:42.669Z,9.8
2023-03-16T04:47:44.850Z,9.4
2023-03-16T04:52:47.392Z,9.1
2023-03-16T04:57:49.410Z,10.7
2023-03-16T05:02:51.501Z,14
2023-03-16T05:07:53.861Z,12.6
2023-03-16T05:12:55.984Z,10.6
2023-03-16T05:17:58.231Z,18.4
2023-03-16T05:22:58.774Z,8.7
2023-03-16T05:28:00.975Z,9.6
2023-03-16T05:33:03.290Z,11
2023-03-16T05:38:05.999Z,10.5
2023-03-16T05:43:08.289Z,9.8
2023-03-16T05:48:10.653Z,10.2
2023-03-16T05:53:12.879Z,10
2023-03-16T05:58:15.021Z,11.5
2023-03-16T06:03:17.118Z,13.3
2023-03-16T06:08:19.476Z,11.3
2023-03-16T06:13:21.568Z,10.7
2023-03-16T06:18:23.685Z,9.2
2023-03-16T06:23:25.996Z,11.7
2023-03-16T06:28:28.537Z,11.8
2023-03-16T06:33:32.744Z,13
2023-03-16T06:38:35.305Z,17
2023-03-16T06:43:37.383Z,9.6
2023-03-16T06:48:39.671Z,12.5
2023-03-16T06:53:42.282Z,9.1
2023-03-16T06:58:44.394Z,9.7
2023-03-16T07:03:46.491Z,7.7
2023-03-16T07:08:48.660Z,14.8
2023-03-16T07:13:50.747Z,10.8
2023-03-16T07:18:52.678Z,6.4
2023-03-16T07:23:54.800Z,6.9
2023-03-16T07:28:58.167Z,6.2
2023-03-16T07:33:59.165Z,5.3
2023-03-16T07:39:01.332Z,6.4
2023-03-16T07:44:03.332Z,5.4
2023-03-16T07:49:05.431Z,5.6
2023-03-16T07:54:07.655Z,5.2
2023-03-16T07:59:09.929Z,6.7
2023-03-16T08:04:12.159Z,5.3
2023-03-16T08:09:14.598Z,6.6
2023-03-16T08:14:16.684Z,6.1
2023-03-16T08:19:21.933Z,5.6
2023-03-16T08:24:24.262Z,5.2
2023-03-16T08:29:26.420Z,6.7
2023-03-16T08:34:28.349Z,6.1
2023-03-16T08:39:30.466Z,7
2023-03-16T08:44:32.437Z,6.3
2023-03-16T08:49:34.641Z,8.2
2023-03-16T08:54:36.874Z,6.5
2023-03-16T08:59:38.959Z,5.5
2023-03-16T09:04:41.072Z,5.4
2023-03-16T09:09:43.550Z,5.9
2023-03-16T09:14:45.640Z,4.8
2023-03-16T09:19:51.350Z,10.9
2023-03-16T09:24:54.408Z,8.4
2023-03-16T09:29:56.534Z,6.6
2023-03-16T09:34:58.621Z,8
2023-03-16T09:40:06.713Z,5.5
2023-03-16T09:45:03.558Z,11.1
2023-03-16T09:50:06.084Z,6.5
2023-03-16T09:55:08.525Z,6.5
2023-03-16T10:00:10.653Z,5.4
2023-03-16T10:05:12.712Z,5.9
2023-03-16T10:10:14.708Z,6
2023-03-16T10:15:16.843Z,5.2
2023-03-16T10:20:19.268Z,7.7
2023-03-16T10:25:21.568Z,5.8
2023-03-16T10:30:23.587Z,7.6
2023-03-16T10:35:25.864Z,4.9
2023-03-16T10:40:29.227Z,6.9
2023-03-16T10:45:32.304Z,5.5
2023-03-16T10:50:34.719Z,5.1
2023-03-16T10:55:37.151Z,4.4
2023-03-16T11:00:39.214Z,6.2
2023-03-16T11:05:41.297Z,6.3
2023-03-16T11:10:54.894Z,6.4
2023-03-16T11:15:47.957Z,14.7
2023-03-16T11:20:50.070Z,5.8
2023-03-16T11:25:52.237Z,4.3
2023-03-16T11:30:54.340Z,7.2
2023-03-16T11:35:59.392Z,7.3
2023-03-16T11:41:02.086Z,3.9
2023-03-16T11:46:04.648Z,7.5
2023-03-16T11:51:07.279Z,5.3
2023-03-16T11:56:09.721Z,5.3
2023-03-16T12:01:11.806Z,4.2
2023-03-16T12:06:22.811Z,3.4
2023-03-16T12:16:26.244Z,4.8
2023-03-16T12:21:32.726Z,3.8
2023-03-16T12:26:39.331Z,4.2
2023-03-16T12:51:34.362Z,5
2023-03-16T12:56:36.883Z,7.6
2023-03-16T13:01:39.381Z,5.6
2023-03-16T13:06:44.681Z,6
2023-03-16T13:11:50.455Z,4
2023-03-16T13:16:53.334Z,5.3
2023-03-16T13:21:56.293Z,5.3
2023-03-16T13:26:58.505Z,5.1
2023-03-16T13:32:00.972Z,4.7
2023-03-16T13:37:03.257Z,5.5
2023-03-16T13:42:05.907Z,5.4
2023-03-16T13:47:08.207Z,8.3
2023-03-16T13:52:10.687Z,4.4
2023-03-16T13:57:13.184Z,6.2
2023-03-16T14:02:15.161Z,7.3
2023-03-16T14:07:17.506Z,5.9
2023-03-16T14:12:19.985Z,5.9
2023-03-16T14:17:22.247Z,4.7
2023-03-16T14:22:24.391Z,5.3
2023-03-16T14:27:26.456Z,5.2
2023-03-16T14:32:28.824Z,3.7
2023-03-16T14:37:36.394Z,5.2
2023-03-16T14:42:40.419Z,3.7
2023-03-16T14:47:42.521Z,5.3
2023-03-16T14:52:44.570Z,3.2
2023-03-16T14:57:46.721Z,5.3
2023-03-16T15:02:48.868Z,6.1
2023-03-16T15:08:01.058Z,4.3
2023-03-16T15:13:03.529Z,3.5
2023-03-16T15:18:05.694Z,4.5
2023-03-16T15:23:07.874Z,6.2
2023-03-16T15:28:10.532Z,5.2
2023-03-16T15:33:13.161Z,4.8
2023-03-16T15:38:15.215Z,4.5
2023-03-16T15:43:17.509Z,4.8
2023-03-16T15:48:22.455Z,5.2
2023-03-16T15:53:30.158Z,3.7
2023-03-16T15:58:24.543Z,6.7
2023-03-16T16:03:25.083Z,6.5
2023-03-16T16:08:25.636Z,8.9
2023-03-16T16:13:31.353Z,8.5
2023-03-16T16:18:34.613Z,7.8
2023-03-16T16:23:35.347Z,11.1
2023-03-16T16:28:35.816Z,12.3
2023-03-16T16:33:36.307Z,11.7
2023-03-16T16:38:36.856Z,14.1
2023-03-16T16:43:37.398Z,11.9
2023-03-16T16:48:37.811Z,13
2023-03-16T16:53:38.337Z,19.2
2023-03-16T16:58:38.879Z,16.6
2023-03-16T17:03:39.525Z,11.8
2023-03-16T17:08:39.893Z,11.1
2023-03-16T17:13:40.382Z,11.9
2023-03-16T17:18:40.869Z,12.1
2023-03-16T17:23:41.356Z,13.5
2023-03-16T17:28:41.786Z,13.7
2023-03-16T17:33:42.304Z,13
2023-03-16T17:38:42.838Z,11.4
2023-03-16T17:43:43.312Z,10
2023-03-16T17:48:43.775Z,9.2
2023-03-16T17:53:45.547Z,9.3
2023-03-16T17:58:54.060Z,9.1
2023-03-16T18:03:54.527Z,10.4
2023-03-16T18:08:55.076Z,12.1
2023-03-16T18:13:55.570Z,12.1
2023-03-16T18:18:56.026Z,10.8
2023-03-16T18:23:56.588Z,12.6
2023-03-16T18:28:57.072Z,13.3
2023-03-16T18:33:57.732Z,12.3
2023-03-16T18:38:58.380Z,11.3
2023-03-16T18:43:58.848Z,11.1
2023-03-16T18:48:59.576Z,10.6
2023-03-16T18:54:00.091Z,11.8
2023-03-16T18:59:00.684Z,13.8
2023-03-16T19:04:01.222Z,11.5
2023-03-16T19:09:04.929Z,17.1
2023-03-16T19:14:05.469Z,15.4
2023-03-16T19:19:05.838Z,18.2
2023-03-16T19:24:06.299Z,31.3
2023-03-16T19:29:06.880Z,24
2023-03-16T19:34:07.647Z,25.5
2023-03-16T19:39:08.191Z,29.8
2023-03-16T19:44:52.905Z,28.6
2023-03-16T19:49:13.457Z,24.4
2023-03-16T19:54:13.945Z,18.7
2023-03-16T19:59:14.739Z,19.1
2023-03-16T20:04:15.735Z,23.2
2023-03-16T20:09:16.392Z,32.7
2023-03-16T20:14:17.513Z,47.1
2023-03-16T20:19:22.389Z,20.6
2023-03-16T20:24:23.147Z,27
2023-03-16T20:29:23.642Z,28.2
2023-03-16T20:34:24.138Z,26.3
2023-03-16T20:39:24.742Z,29.7
2023-03-16T20:44:25.180Z,29.1
2023-03-16T20:49:25.643Z,36
2023-03-16T20:54:26.211Z,51.7
2023-03-16T20:59:26.644Z,59.9
2023-03-16T21:04:27.282Z,61.5
2023-03-16T21:09:27.854Z,59.5
2023-03-16T21:14:28.242Z,53
2023-03-16T21:19:28.680Z,45.2
2023-03-16T21:24:29.151Z,41.9
2023-03-16T21:29:29.672Z,39.3
2023-03-16T21:34:30.217Z,37.1
2023-03-16T21:39:30.668Z,33.9
2023-03-16T21:44:31.092Z,37.3
2023-03-16T21:49:31.548Z,33.5
2023-03-16T21:54:32.166Z,36.7
2023-03-16T21:59:32.549Z,41.5
2023-03-16T22:04:32.937Z,40.4
2023-03-16T22:09:33.432Z,38.7
2023-03-16T22:14:33.904Z,44.2
2023-03-16T22:19:34.436Z,39.3
2023-03-16T22:24:35.079Z,46.1
2023-03-16T22:29:35.585Z,44.8
2023-03-16T22:34:36.033Z,69.4
2023-03-16T22:39:36.437Z,62.1
2023-03-16T22:44:36.892Z,49.4
2023-03-16T22:49:37.289Z,47.5
2023-03-16T22:54:37.874Z,54.7
2023-03-16T22:59:38.302Z,47.8
2023-03-16T23:04:38.768Z,36.2
2023-03-16T23:09:39.515Z,38.3
2023-03-16T23:14:39.944Z,36.9
2023-03-16T23:19:40.354Z,44.7
2023-03-16T23:24:40.777Z,38.6
2023-03-16T23:29:41.196Z,40
2023-03-16T23:34:41.615Z,32.8
2023-03-16T23:39:42.019Z,34.4
2023-03-16T23:44:42.415Z,38.7
2023-03-16T23:49:42.910Z,32.5
2023-03-16T23:54:43.550Z,30.2
2023-03-16T23:59:43.953Z,30.1
